logo tempoitalia

Diretta Meteo Rimini, Italiamercoledì 15 luglio ore 07:50

Mappa
Sereno 21 °C Poco Nuvoloso 24 Ore: T.min 14 T.max 25
Ponente Nord Km/h 5.5 Punto di rugiada: 10 °C Umidità: 49% Visibilità: 10 Km
Il sole sorge alle: 05:39 Il sole tramonta alle: 20:51
15 Luglio 2020 07:50 tempo osservato: Poco Nuvoloso Poco Nuvoloso 21 49 1013 vento: Nord N 5.5
15 Luglio 2020 07:20 tempo osservato: Sereno Sereno 18 59 1013 vento: Nord N 5.5
15 Luglio 2020 06:50 tempo osservato: Sereno Sereno 16 67 1013 vento: Nord N 3.7
15 Luglio 2020 05:50 tempo osservato: Sereno Sereno 14 71 1013 vento: Nord N 3.7
15 Luglio 2020 05:20 tempo osservato: Sereno Sereno 15 67 1013 vento: Nord N 5.5
15 Luglio 2020 04:50 tempo osservato: Sereno Sereno 15 72 1013 vento: Nord N 1.8
15 Luglio 2020 04:20 tempo osservato: Sereno Sereno 15 72 1013 vento: Nord N 3.7
15 Luglio 2020 03:50 tempo osservato: Sereno Sereno 16 67 1013 vento: Nord N 3.7
15 Luglio 2020 03:20 tempo osservato: Sereno Sereno 16 67 1013 vento: Nord N 3.7
15 Luglio 2020 02:50 tempo osservato: Sereno Sereno 16 67 1013 vento: Nord S 7.4
15 Luglio 2020 02:20 tempo osservato: Sereno Sereno 17 63 1014 vento: Nord N 5.5
15 Luglio 2020 01:50 tempo osservato: Sereno Sereno 17 59 1014 vento: Nord N 5.5
15 Luglio 2020 01:20 tempo osservato: Sereno Sereno 17 63 1014 vento: Nord N 5.5
15 Luglio 2020 00:50 tempo osservato: Sereno Sereno 17 59 1014 vento: Nord N 5.5
15 Luglio 2020 00:20 tempo osservato: Sereno Sereno 17 63 1014 vento: Nord N 5.5
14 Luglio 2020 23:50 tempo osservato: Sereno Sereno 17 63 1014 vento: Nord N 5.5
14 Luglio 2020 23:20 tempo osservato: Sereno Sereno 18 59 1014 vento: Nord S 7.4
14 Luglio 2020 22:50 tempo osservato: Sereno Sereno 18 59 1014 vento: Nord S 9.3
14 Luglio 2020 22:20 tempo osservato: Sereno Sereno 19 55 1014 vento: Nord S/SO 9.3
14 Luglio 2020 21:50 tempo osservato: Sereno Sereno 21 46 1013 vento: Nord N 1.8
14 Luglio 2020 20:50 tempo osservato: Sereno Sereno 23 40 1013 vento: Nord N/NE 7.4
14 Luglio 2020 20:20 tempo osservato: Sereno Sereno 23 40 1013 vento: Nord N 7.4
14 Luglio 2020 19:50 tempo osservato: Sereno Sereno 24 33 1013 vento: Nord N 11.1
14 Luglio 2020 19:20 tempo osservato: Sereno Sereno 24 38 1013 vento: Nord N 13
14 Luglio 2020 18:50 tempo osservato: Sereno Sereno 24 43 1013 vento: Nord N 13
14 Luglio 2020 17:50 tempo osservato: Sereno Sereno 24 43 1013 vento: Nord N 13
14 Luglio 2020 17:20 tempo osservato: Sereno Sereno 24 43 1013 vento: Nord N 11.1
14 Luglio 2020 16:50 tempo osservato: Sereno Sereno 24 43 1014 vento: Nord N 13
14 Luglio 2020 16:20 tempo osservato: Sereno Sereno 25 41 1014 vento: Nord N 14.8
14 Luglio 2020 15:50 tempo osservato: Sereno Sereno 25 41 1014 vento: Nord N 14.8
14 Luglio 2020 15:20 tempo osservato: Sereno Sereno 24 47 1014 vento: Nord N 16.7
14 Luglio 2020 14:50 tempo osservato: Poco Nuvoloso Poco Nuvoloso 24 50 1014 vento: Nord N 14.8
14 Luglio 2020 14:20 tempo osservato: Poco Nuvoloso Poco Nuvoloso 24 50 1014 vento: Nord N/NE 16.7
14 Luglio 2020 13:50 tempo osservato: Poco Nuvoloso Poco Nuvoloso 24 50 1014 vento: Nord N 16.7
14 Luglio 2020 13:20 tempo osservato: Poco Nuvoloso Poco Nuvoloso 24 53 1015 vento: Nord N 16.7
14 Luglio 2020 12:50 tempo osservato: Poco Nuvoloso Poco Nuvoloso 24 50 1015 vento: Nord N/NE 14.8
14 Luglio 2020 12:20 tempo osservato: Poco Nuvoloso Poco Nuvoloso 24 53 1015 vento: Nord N/NE 13
14 Luglio 2020 11:50 tempo osservato: Poco Nuvoloso Poco Nuvoloso 24 50 1015 vento: Nord N 11.1
14 Luglio 2020 11:20 tempo osservato: Poco Nuvoloso Poco Nuvoloso 25 47 1015 vento: Nord N 14.8
14 Luglio 2020 10:50 tempo osservato: Poco Nuvoloso Poco Nuvoloso 23 56 1015 vento: Nord N/NO 14.8
14 Luglio 2020 10:20 tempo osservato: Poco Nuvoloso Poco Nuvoloso 23 56 1015 vento: Nord NO 14.8
14 Luglio 2020 09:50 tempo osservato: Poco Nuvoloso Poco Nuvoloso 23 56 1015 vento: Nord NO 13
14 Luglio 2020 09:20 tempo osservato: Poco Nuvoloso Poco Nuvoloso 23 53 1015 vento: Nord O/NO 14.8
14 Luglio 2020 08:50 tempo osservato: Poco Nuvoloso Poco Nuvoloso 21 56 1015 vento: Nord O/NO 16.7